Scroll down
FLIGHT INFORMATION
PMDG Flight Operations

PFO704

At Arrival Gate

KLAX
 KONT
DATE: 2021-07-05
GATE: 31A
GATE DEPARTURE: 05:43
TAKEOFF: 05:58
DATE: 2021-07-05
GATE:  -
LANDING: 06:23
GATE ARRIVAL: 06:25
FLIGHT DATA
Crew: 
Speed: 
277 kts
Altitude: 
5,037 ft
Stage Length: 
40.7 nm
Block Time: 
0.6 hrs
Flight Time: 
0.4 hrs
Fuel Used: 
2,683 lb
Cleared Route: KLAX ZEBLU RW26R
TRACK DATA
50,000 ft 1,000 kts
AIRCRAFT INFO AND CUMULATIVE STATS
Aircraft Type: 
B739SSW
Registration: 
SELCAL: 
MSN/LN: 
0 / 1
Total Flights: 
6
Total Block Time: 
9.3 hrs
Total Flight Time: 
8 hrs
Total Fuel Used: 
46,472 lb
DATALINK LOG | Newest first | Current as of: 2022-09-25 18:04:09
LABEL SEQUENCE CONTENT Dn/Up
QD283206:25 5.2▼ Dn
QC252906:23▼ Dn
QB000605:58▼ Dn
QA455305:43 8.1▼ Dn
2U3413KONT 050453Z 27009KT 8SM CLR 24/12 A2995 RMK AO2 SLP127 FU ALQDS T02440122▲ Up
2U3413KLAX 050453Z 25010KT 10SM OVC007 17/15 A2995 RMK AO2 SLP140 T01670150 $▲ Up
2S3544KLAX KONT▼ Dn
A33452NO MATCHING FLIGHT DATA AVAILABLE FROM ANSP▲ Up
Q03342[LINK ACK]▲ Up
Q03342[LINK TEST]▼ Dn


AIRCRAFT HISTORY
FLIGHT DATE FLIGHT NO. ORIGIN DESTINATION CLEARED ROUTE BLOCK TIME FLIGHT TIME FUEL USED PILOT
2021-07-24PFO723KONT KLAX KONT MERCE RW24R0.4 hrs0.2 hrs2,086 lbKyle Weber
2021-07-05PFO704KLAX KONT KLAX ZEBLU RW26R0.6 hrs0.4 hrs2,683 lbKyle Weber
2020-07-01PFO701KDAB KLAX KDAB BARBS ROYES CRG AMG MGM SQS BYP SPS GANJA TURKI TXO DRK HIPPI GABBL CHPLN NWMAN MDLER MNROE HLYWD BRUEN AVATR DAAAY WADUP NEILE SEAVU RW25L5.3 hrs5 hrs24,443 lbKyle Weber
2020-02-16PFO519KIAD KDAB 2.1 hrs1.9 hrs12,477 lbChemtrails
2019-11-05PFO1105KBWI KIAD 0.4 hrs0.2 hrs1,994 lb-SUSPENDED-
2019-11-05PFO1105KIAD KBWI 0.5 hrs0.2 hrs2,789 lb-SUSPENDED-